Time;durP1;ratioP1;P1;durP2;ratioP2;P2;SDS_P1;SDS_P2;PMS_P1;PMS_P2;Temp;Humidity;BMP_temperature;BMP_pressure;BME280_temperature;BME280_humidity;BME280_pressure;Samples;Min_cycle;Max_cycle;Signal;HPM_P1;HPM_P2
2022/04/15 00:00:49;;;;;;;22.70;14.52;;;;;;;5.82;68.20;98068.97;10337062;28;20069;-62
2022/04/15 00:05:52;;;;;;;27.33;16.42;;;;;;;6.08;68.50;98118.50;10337434;28;20040;-62
2022/04/15 00:10:51;;;;;;;33.13;19.10;;;;;;;5.61;69.02;98063.34;10337116;28;20064;-62
2022/04/15 00:15:51;;;;;;;27.50;18.33;;;;;;;5.65;69.54;98068.59;10336397;28;20064;-62
2022/04/15 00:20:51;;;;;;;25.17;15.02;;;;;;;5.28;69.50;98033.38;10336840;28;20069;-62
2022/04/15 00:25:52;;;;;;;39.80;25.70;;;;;;;5.74;69.45;98114.25;10336852;28;20063;-62
2022/04/15 00:30:51;;;;;;;21.98;14.15;;;;;;;5.29;69.58;98053.97;10336230;28;20053;-62
2022/04/15 00:35:50;;;;;;;20.30;13.48;;;;;;;5.54;69.58;98101.78;10335191;28;20060;-62
2022/04/15 00:40:49;;;;;;;22.98;15.32;;;;;;;5.30;70.40;98091.75;10336416;28;20076;-62
2022/04/15 00:45:48;;;;;;;21.67;13.95;;;;;;;5.05;70.39;98055.97;10334446;28;20034;-62
2022/04/15 00:50:47;;;;;;;17.13;11.68;;;;;;;5.03;71.46;98086.78;10335777;28;20038;-62
2022/04/15 00:55:48;;;;;;;86.93;54.60;;;;;;;4.62;71.25;98027.41;10335401;28;20497;-62
2022/04/15 01:00:51;;;;;;;40.08;25.10;;;;;;;5.09;71.46;98110.09;10334326;28;20084;-62
2022/04/15 01:05:55;;;;;;;30.80;14.60;;;;;;;4.98;71.61;98118.34;10335104;28;20057;-62
2022/04/15 01:10:58;;;;;;;35.25;23.05;;;;;;;4.26;72.21;98017.81;10335572;28;20087;-62
2022/04/15 01:15:57;;;;;;;22.80;16.15;;;;;;;4.83;72.08;98113.63;10334840;28;20061;-62
2022/04/15 01:20:56;;;;;;;24.45;14.80;;;;;;;4.62;72.55;98104.50;10335555;28;20451;-62
2022/04/15 01:25:55;;;;;;;22.30;15.00;;;;;;;4.66;73.38;98124.31;10334335;28;20061;-62
2022/04/15 01:30:54;;;;;;;27.00;16.10;;;;;;;4.52;73.42;98111.91;10334492;28;20454;-62
2022/04/15 01:35:53;;;;;;;26.52;17.98;;;;;;;4.54;73.37;98121.38;10334061;28;20033;-62
2022/04/15 01:40:52;;;;;;;31.27;20.52;;;;;;;4.49;73.78;98112.69;10334232;28;20128;-62
2022/04/15 01:45:51;;;;;;;37.80;24.67;;;;;;;4.47;74.26;98109.19;10333824;28;20475;-62
2022/04/15 01:50:50;;;;;;;30.20;17.83;;;;;;;3.64;74.23;97976.69;10333615;28;20038;-62
2022/04/15 01:55:49;;;;;;;38.58;23.85;;;;;;;3.02;74.46;97881.59;10333534;28;20111;-62
2022/04/15 02:00:47;;;;;;;27.23;16.35;;;;;;;3.81;75.37;98028.50;10333369;28;20025;-62
2022/04/15 02:05:46;;;;;;;26.67;15.82;;;;;;;4.02;75.50;98063.38;10332646;28;20039;-62
2022/04/15 02:10:45;;;;;;;27.65;17.98;;;;;;;3.84;75.29;98048.28;10333103;28;20021;-62
2022/04/15 02:15:45;;;;;;;32.42;18.42;;;;;;;3.92;75.07;98079.34;10332764;28;20063;-62
2022/04/15 02:20:43;;;;;;;35.88;20.55;;;;;;;4.06;75.01;98102.03;10332879;28;20065;-62
2022/04/15 02:25:42;;;;;;;36.00;20.40;;;;;;;3.99;75.34;98089.81;10331625;28;20041;-62
2022/04/15 02:30:41;;;;;;;35.97;20.52;;;;;;;3.94;75.23;98090.50;10332537;28;20535;-62
2022/04/15 02:35:40;;;;;;;155.18;80.68;;;;;;;3.56;75.67;98031.16;10331934;28;20491;-62
2022/04/15 02:40:39;;;;;;;82.57;43.63;;;;;;;3.78;76.42;98100.31;10331999;28;20820;-62
2022/04/15 02:45:38;;;;;;;46.17;23.92;;;;;;;3.65;76.75;98100.72;10331410;28;20426;-62
2022/04/15 02:50:39;;;;;;;22.92;14.95;;;;;;;2.78;76.75;97955.19;10331305;28;20405;-62
2022/04/15 02:55:38;;;;;;;28.90;19.13;;;;;;;3.21;76.10;98041.16;10331313;28;20077;-62
2022/04/15 03:00:37;;;;;;;31.10;18.73;;;;;;;2.95;76.18;98005.28;10331318;28;20033;-62
2022/04/15 03:05:36;;;;;;;30.60;19.20;;;;;;;3.46;76.52;98086.44;10330219;28;20079;-62
2022/04/15 03:10:35;;;;;;;30.27;18.27;;;;;;;3.43;77.60;98091.50;10331077;28;20105;-62
2022/04/15 03:15:37;;;;;;;28.38;18.17;;;;;;;3.33;77.10;98081.72;10330608;28;20077;-62
2022/04/15 03:20:36;;;;;;;30.20;18.13;;;;;;;3.09;77.64;98061.28;10330732;28;20069;-62
2022/04/15 03:25:35;;;;;;;27.00;17.65;;;;;;;3.08;77.37;98062.13;10330079;28;20087;-62
2022/04/15 03:30:34;;;;;;;28.33;17.05;;;;;;;3.33;77.64;98105.72;10330923;28;20472;-62
2022/04/15 03:35:33;;;;;;;27.50;17.33;;;;;;;3.35;77.71;98111.72;10330151;28;20406;-62
2022/04/15 03:40:32;;;;;;;27.88;17.13;;;;;;;2.92;77.67;98041.09;10329218;28;20095;-62
2022/04/15 03:45:31;;;;;;;38.83;24.98;;;;;;;3.40;77.47;98120.47;10330047;28;20391;-61
2022/04/15 03:50:29;;;;;;;40.00;25.42;;;;;;;3.06;77.15;98059.50;10330396;28;20041;-61
2022/04/15 03:55:28;;;;;;;32.35;21.92;;;;;;;3.25;77.40;98078.91;10330140;28;20419;-61
2022/04/15 04:00:27;;;;;;;43.05;26.95;;;;;;;3.21;77.72;98066.81;10329788;28;20116;-61
2022/04/15 04:05:26;;;;;;;36.67;21.58;;;;;;;2.99;78.46;98047.28;10329283;28;20037;-61
2022/04/15 04:10:25;;;;;;;31.88;20.40;;;;;;;3.21;78.90;98097.59;10328398;28;20029;-61
2022/04/15 04:15:24;;;;;;;38.97;18.45;;;;;;;3.04;78.08;98081.63;10329239;28;20404;-61
2022/04/15 04:20:24;;;;;;;24.58;16.17;;;;;;;3.15;77.92;98111.09;10303448;28;20077;-61
2022/04/15 04:25:23;;;;;;;;;;;;;;;3.09;78.12;98113.44;10269008;28;20455;-61
2022/04/15 04:30:22;;;;;;;22.10;14.82;;;;;;;3.06;78.14;98130.41;10247672;28;19910;-61
2022/04/15 04:35:21;;;;;;;33.78;19.75;;;;;;;3.16;78.11;98127.34;10282935;28;20430;-61
2022/04/15 04:40:20;;;;;;;37.78;19.65;;;;;;;2.71;78.31;98045.47;10295556;28;20076;-61
2022/04/15 04:45:20;;;;;;;39.75;24.80;;;;;;;2.95;78.46;98065.94;10293139;28;20488;-61
2022/04/15 04:50:19;;;;;;;36.40;25.02;;;;;;;2.97;78.78;98047.22;10287320;28;20085;-61
2022/04/15 04:55:18;;;;;;;;;;;;;;;3.63;78.70;98126.34;10291917;28;20077;-61
2022/04/15 05:00:18;;;;;;;68.03;39.92;;;;;;;3.84;78.80;98131.28;10289760;28;20506;-61
2022/04/15 05:05:17;;;;;;;39.20;25.05;;;;;;;3.77;78.43;98093.41;10291377;28;20083;-61
2022/04/15 05:10:16;;;;;;;30.45;22.60;;;;;;;4.03;78.84;98095.91;10291610;28;20451;-62
2022/04/15 05:15:15;;;;;;;34.13;21.88;;;;;;;4.42;78.48;98116.78;10292418;28;20061;-61
2022/04/15 05:20:14;;;;;;;37.17;22.85;;;;;;;4.03;78.19;98017.19;10292870;28;20033;-62
2022/04/15 05:25:13;;;;;;;33.15;24.05;;;;;;;4.99;77.27;98123.53;10292225;28;20060;-61
2022/04/15 05:30:12;;;;;;;34.45;21.80;;;;;;;5.26;76.74;98122.53;10290468;28;20068;-61
2022/04/15 05:35:11;;;;;;;36.40;23.95;;;;;;;5.47;76.16;98109.34;10292501;28;20595;-61
2022/04/15 05:40:10;;;;;;;35.88;24.08;;;;;;;5.75;75.26;98105.72;10292030;28;20074;-61
2022/04/15 05:45:09;;;;;;;;;;;;;;;6.08;74.81;98115.91;10291756;28;20523;-61
2022/04/15 05:50:08;;;;;;;34.78;22.25;;;;;;;6.37;74.83;98106.28;10291171;28;20392;-61
2022/04/15 05:55:07;;;;;;;34.72;23.77;;;;;;;6.27;72.02;98044.16;10292382;28;20099;-61
2022/04/15 06:00:08;;;;;;;38.53;23.80;;;;;;;6.61;72.00;98048.31;10292154;28;20073;-62
2022/04/15 06:05:08;;;;;;;36.13;22.98;;;;;;;6.86;70.11;98044.47;10291259;28;20061;-61
2022/04/15 06:10:08;;;;;;;36.22;25.30;;;;;;;7.47;69.97;98093.72;10291837;28;20586;-61
2022/04/15 06:15:13;;;;;;;;;;;;;;;7.76;68.53;98086.47;10292069;28;20524;-62
2022/04/15 06:20:12;;;;;;;37.42;24.77;;;;;;;8.04;66.46;98087.75;10291152;28;20019;-62
2022/04/15 06:25:12;;;;;;;36.72;24.35;;;;;;;8.18;66.35;98061.22;10291068;28;20065;-62
2022/04/15 06:30:11;;;;;;;36.97;25.15;;;;;;;8.42;65.36;98069.28;10290201;28;20076;-62
2022/04/15 06:35:10;;;;;;;39.10;26.45;;;;;;;8.63;64.81;98032.47;10269587;28;20069;-61
2022/04/15 06:40:10;;;;;;;40.53;25.80;;;;;;;8.49;63.53;97951.25;10290283;28;20038;-62
2022/04/15 06:45:13;;;;;;;28.25;18.70;;;;;;;9.49;61.18;98068.72;10289906;28;20068;-62
2022/04/15 06:50:13;;;;;;;33.15;21.30;;;;;;;9.79;60.65;98068.06;10289917;28;20077;-62
2022/04/15 06:55:11;;;;;;;34.80;21.85;;;;;;;9.98;59.22;98053.53;10289954;28;20065;-61
2022/04/15 07:00:11;;;;;;;29.60;19.02;;;;;;;9.77;59.19;97955.78;10289130;28;20052;-61
2022/04/15 07:05:11;;;;;;;29.20;21.30;;;;;;;10.71;57.53;98053.00;10290608;28;20061;-63
2022/04/15 07:10:11;;;;;;;26.98;19.52;;;;;;;10.99;55.47;98051.38;10290117;28;20060;-62
2022/04/15 07:15:10;;;;;;;27.52;21.60;;;;;;;10.61;53.98;97943.09;10289778;28;20057;-62
2022/04/15 07:20:09;;;;;;;29.77;21.77;;;;;;;11.54;52.85;98028.88;10289863;28;20030;-62
2022/04/15 07:25:08;;;;;;;;;;;;;;;12.01;51.13;98051.34;10289157;28;20108;-62
2022/04/15 07:30:08;;;;;;;36.38;30.90;;;;;;;11.85;48.68;97963.00;10289981;28;20359;-62
2022/04/15 07:35:07;;;;;;;27.73;15.05;;;;;;;12.38;48.38;97991.44;10287962;28;20061;-62
2022/04/15 07:40:06;;;;;;;25.88;16.73;;;;;;;12.84;46.74;98015.50;10289924;28;20487;-62
2022/04/15 07:45:06;;;;;;;23.40;12.60;;;;;;;13.32;46.08;98033.41;10268275;28;20535;-62
2022/04/15 07:50:06;;;;;;;17.30;10.95;;;;;;;13.20;44.99;97953.59;10289362;28;20100;-62
2022/04/15 07:55:05;;;;;;;13.10;7.70;;;;;;;13.71;44.31;97958.38;10288690;28;20582;-62
2022/04/15 08:00:05;;;;;;;18.63;8.20;;;;;;;14.41;43.44;98020.22;10288708;28;20081;-62
2022/04/15 08:05:04;;;;;;;9.35;6.75;;;;;;;14.76;41.97;98018.06;10289117;28;20121;-62
2022/04/15 08:10:05;;;;;;;10.95;6.05;;;;;;;14.97;40.80;98006.44;10290424;28;20068;-61
2022/04/15 08:15:05;;;;;;;10.98;5.60;;;;;;;15.13;40.50;98002.72;10296003;28;20057;-61
2022/04/15 08:20:04;;;;;;;10.57;5.63;;;;;;;15.13;40.44;97962.63;10296408;28;20461;-61
2022/04/15 08:25:04;;;;;;;18.73;5.75;;;;;;;15.71;40.51;97994.78;10296095;28;20057;-63
2022/04/15 08:30:04;;;;;;;11.10;5.45;;;;;;;15.70;38.97;97931.16;10295991;28;20061;-61
2022/04/15 08:35:06;;;;;;;10.10;5.50;;;;;;;16.18;39.09;97972.97;10295594;28;20061;-61
2022/04/15 08:40:06;;;;;;;10.50;5.25;;;;;;;16.55;38.34;97974.84;10295563;28;20065;-61
2022/04/15 08:45:06;;;;;;;8.90;4.90;;;;;;;16.80;37.96;97961.22;10295480;28;20054;-62
2022/04/15 08:50:07;;;;;;;8.30;4.97;;;;;;;16.99;37.68;97944.19;10294002;28;20550;-61
2022/04/15 08:55:06;;;;;;;9.88;5.65;;;;;;;17.27;37.85;97940.91;10294216;28;20069;-61
2022/04/15 09:00:06;;;;;;;9.85;4.65;;;;;;;17.54;38.22;97937.56;10294157;28;20065;-61
2022/04/15 09:05:06;;;;;;;10.32;5.05;;;;;;;17.80;36.76;97924.66;10293258;28;20076;-61
2022/04/15 09:10:07;;;;;;;9.80;4.30;;;;;;;18.08;35.47;97915.13;10294711;28;20089;-61
2022/04/15 09:15:06;;;;;;;9.38;3.95;;;;;;;18.39;33.10;97915.09;10293987;28;20165;-61
2022/04/15 09:20:08;;;;;;;7.05;3.85;;;;;;;18.71;30.75;97897.50;10293570;28;20030;-61
2022/04/15 09:25:09;;;;;;;5.75;3.38;;;;;;;18.60;29.49;97826.00;10293418;28;20065;-61
2022/04/15 09:30:09;;;;;;;4.78;3.45;;;;;;;19.47;29.02;97887.13;10293747;28;20061;-63
2022/04/15 09:35:09;;;;;;;20.15;16.60;;;;;;;19.73;25.89;97871.31;10293610;28;20065;-62
2022/04/15 09:40:09;;;;;;;9.55;6.00;;;;;;;19.99;24.82;97858.97;10293727;28;20068;-61
2022/04/15 09:45:16;;;;;;;11.43;4.72;;;;;;;20.31;25.54;97856.88;10294994;28;20670;-60
2022/04/15 09:50:22;;;;;;;5.75;3.65;;;;;;;20.31;25.14;97849.00;10294887;28;20108;-61
2022/04/15 09:55:25;;;;;;;7.63;4.53;;;;;;;20.46;25.46;97841.34;10295296;28;20080;-61
2022/04/15 10:00:24;;;;;;;4.65;2.80;;;;;;;20.63;24.95;97830.16;10294725;28;20058;-61
2022/04/15 10:05:23;;;;;;;5.30;3.15;;;;;;;20.65;24.10;97811.59;10294960;28;20038;-61
2022/04/15 10:10:23;;;;;;;4.63;3.30;;;;;;;20.57;23.98;97779.44;10294953;28;20109;-61
2022/04/15 10:15:22;;;;;;;6.70;3.17;;;;;;;20.61;22.70;97752.00;10294695;28;20069;-61
2022/04/15 10:20:21;;;;;;;5.53;3.28;;;;;;;21.03;22.87;97772.22;10294187;28;20064;-60
2022/04/15 10:25:20;;;;;;;5.35;3.20;;;;;;;21.27;21.87;97786.19;10294686;28;20065;-61
2022/04/15 10:30:21;;;;;;;6.63;3.33;;;;;;;21.04;22.65;97729.94;10294377;28;20781;-61
2022/04/15 10:35:26;;;;;;;5.63;3.35;;;;;;;21.31;20.95;97791.25;10291393;28;20072;-61
2022/04/15 10:40:29;;;;;;;4.72;3.33;;;;;;;21.49;21.81;97783.44;10286461;28;20065;-61
2022/04/15 10:45:34;;;;;;;4.53;2.80;;;;;;;21.55;22.16;97768.19;10288492;28;20068;-61
2022/04/15 10:50:35;;;;;;;5.38;3.47;;;;;;;21.27;20.88;97736.03;10289199;28;20194;-62
2022/04/15 10:55:44;;;;;;;7.40;4.07;;;;;;;21.71;20.77;97751.63;10290552;28;20471;-61
2022/04/15 11:06:04;;;;;;;6.55;3.53;;;;;;;21.85;20.26;97712.25;10290400;28;20061;-60
2022/04/15 11:11:03;;;;;;;5.03;3.72;;;;;;;22.36;19.52;97752.97;10290770;28;20524;-63
2022/04/15 11:21:07;;;;;;;7.35;4.25;;;;;;;22.18;19.56;97703.66;10290012;28;20487;-61
2022/04/15 11:26:06;;;;;;;3.85;3.15;;;;;;;22.64;19.63;97730.44;10290002;28;20065;-60
2022/04/15 11:31:28;;;;;;;4.72;3.20;;;;;;;22.69;20.76;97717.00;10289475;28;20069;-60
2022/04/15 11:36:28;;;;;;;5.13;3.28;;;;;;;22.65;20.63;97710.13;10289725;28;20065;-60
2022/04/15 11:41:27;;;;;;;6.68;3.30;;;;;;;22.63;20.07;97677.66;10289685;28;20068;-60
2022/04/15 11:46:38;;;;;;;5.47;3.00;;;;;;;22.96;20.46;97712.13;10294352;28;20583;-60
2022/04/15 11:51:37;;;;;;;7.35;3.70;;;;;;;22.93;19.88;97691.97;10291021;28;20070;-61
2022/04/15 11:56:36;;;;;;;11.18;3.58;;;;;;;22.75;18.61;97655.88;10296584;28;20510;-60
2022/04/15 12:01:36;;;;;;;4.15;3.50;;;;;;;22.87;19.53;97649.09;10295155;28;20104;-61
2022/04/15 12:06:40;;;;;;;7.38;3.78;;;;;;;23.09;19.00;97668.19;10296138;28;20068;-60
2022/04/15 12:11:40;;;;;;;4.97;3.38;;;;;;;23.39;18.90;97673.63;10296313;28;20683;-60
2022/04/15 12:16:39;;;;;;;5.57;3.20;;;;;;;23.54;19.45;97666.69;10296132;28;20088;-60
2022/04/15 12:21:38;;;;;;;6.47;3.42;;;;;;;23.58;19.00;97662.94;10294820;28;20069;-61
2022/04/15 12:26:41;;;;;;;4.50;3.35;;;;;;;23.75;18.54;97661.16;10295812;28;20156;-60
2022/04/15 12:31:40;;;;;;;4.60;3.22;;;;;;;23.40;19.25;97595.06;10295093;28;20064;-60
2022/04/15 12:36:45;;;;;;;5.70;3.10;;;;;;;23.49;19.28;97644.91;10295595;28;20062;-61
2022/04/15 12:41:49;;;;;;;4.10;3.15;;;;;;;23.49;18.35;97610.47;10295338;28;20062;-60
2022/04/15 12:46:54;;;;;;;5.07;3.20;;;;;;;23.92;18.48;97628.38;10294120;28;20103;-61
2022/04/15 12:51:58;;;;;;;4.65;2.65;;;;;;;23.87;17.16;97620.69;10294823;28;20081;-61
2022/04/15 12:56:58;;;;;;;5.55;2.70;;;;;;;23.52;17.17;97561.75;10292932;28;20061;-61
2022/04/15 13:01:57;;;;;;;4.70;2.95;;;;;;;23.99;16.55;97612.03;10294368;28;20061;-61
2022/04/15 13:06:56;;;;;;;4.80;2.72;;;;;;;23.88;17.37;97577.34;10294591;28;20034;-61
2022/04/15 13:11:55;;;;;;;5.18;3.17;;;;;;;23.91;17.03;97585.13;10292963;28;20125;-61
2022/04/15 13:16:54;;;;;;;3.42;2.70;;;;;;;23.98;15.54;97559.97;10273558;28;20511;-61
2022/04/15 13:21:53;;;;;;;5.20;2.47;;;;;;;24.30;14.93;97578.44;10270159;28;20034;-61
2022/04/15 13:26:52;;;;;;;2.78;2.10;;;;;;;24.23;12.42;97526.72;10293970;28;20061;-61
2022/04/15 13:31:52;;;;;;;3.00;2.13;;;;;;;24.42;12.70;97521.16;10293927;28;20098;-62
2022/04/15 13:36:51;;;;;;;4.22;2.40;;;;;;;24.57;12.36;97514.94;10293721;28;20069;-61
2022/04/15 13:41:50;;;;;;;3.60;1.98;;;;;;;24.51;11.16;97520.59;10293552;28;20041;-61
2022/04/15 13:46:49;;;;;;;2.78;1.80;;;;;;;24.17;11.62;97440.44;10293228;28;20480;-61
2022/04/15 13:51:48;;;;;;;5.60;1.70;;;;;;;25.10;11.55;97531.97;10292476;28;20419;-61
2022/04/15 13:56:47;;;;;;;3.95;1.67;;;;;;;25.32;10.89;97523.50;10291671;28;20073;-61
2022/04/15 14:01:46;;;;;;;2.72;2.28;;;;;;;24.95;10.91;97501.09;10292798;28;20125;-62
2022/04/15 14:06:50;;;;;;;4.75;2.58;;;;;;;25.03;14.00;97535.97;10290934;28;20155;-61
2022/04/15 14:11:51;;;;;;;5.95;3.58;;;;;;;24.48;20.16;97521.66;10292838;28;20066;-61
2022/04/15 14:16:49;;;;;;;9.38;3.88;;;;;;;23.03;21.89;97417.09;10292381;28;20518;-62
2022/04/15 14:21:48;;;;;;;7.93;3.75;;;;;;;23.21;21.80;97482.22;10292884;28;20497;-61
2022/04/15 14:26:47;;;;;;;6.45;4.07;;;;;;;23.42;21.67;97514.56;10307229;28;20543;-61
2022/04/15 14:31:47;;;;;;;7.72;3.50;;;;;;;23.35;22.00;97512.34;10291708;28;20105;-62
2022/04/15 14:36:46;;;;;;;8.05;3.47;;;;;;;23.27;21.98;97526.03;10292277;28;20065;-61
2022/04/15 14:41:45;;;;;;;6.22;3.30;;;;;;;22.93;22.71;97496.16;10291564;28;20034;-63
2022/04/15 14:46:44;;;;;;;6.00;3.47;;;;;;;23.02;22.20;97523.88;10291348;28;20076;-61
2022/04/15 14:51:43;;;;;;;7.20;3.80;;;;;;;22.85;22.91;97514.22;10291600;28;20081;-62
2022/04/15 14:56:42;;;;;;;7.97;4.03;;;;;;;22.79;22.52;97528.66;10291149;28;20131;-61
2022/04/15 15:01:41;;;;;;;5.43;3.08;;;;;;;22.58;22.67;97495.38;10290702;28;20516;-61
2022/04/15 15:06:41;;;;;;;8.82;4.00;;;;;;;22.75;23.33;97535.03;10290924;28;20124;-61
2022/04/15 15:11:43;;;;;;;14.05;5.13;;;;;;;22.72;23.03;97529.88;10289138;28;20066;-61
2022/04/15 15:16:42;;;;;;;6.15;3.90;;;;;;;22.67;22.26;97541.63;10290998;28;20073;-61
2022/04/15 15:21:44;;;;;;;8.55;3.90;;;;;;;22.68;23.50;97538.91;10289341;28;20065;-61
2022/04/15 15:32:12;;;;;;;8.02;3.75;;;;;;;22.20;24.71;97537.91;10253730;28;20069;-61
2022/04/15 15:37:11;;;;;;;5.50;3.83;;;;;;;22.10;24.94;97529.59;10289382;28;20065;-61
2022/04/15 15:42:11;;;;;;;9.80;4.75;;;;;;;22.07;25.53;97544.75;10289672;28;20076;-61
2022/04/15 15:47:10;;;;;;;7.90;5.90;;;;;;;21.91;25.46;97542.84;10290116;28;20345;-61
2022/04/15 15:52:10;;;;;;;7.88;3.95;;;;;;;21.86;25.94;97534.31;10289549;28;20046;-61
2022/04/15 15:57:09;;;;;;;11.00;8.25;;;;;;;21.92;26.16;97539.28;10289992;28;20070;-61
2022/04/15 16:02:10;;;;;;;7.25;4.32;;;;;;;21.77;26.12;97524.19;10289307;28;20025;-61
2022/04/15 16:07:09;;;;;;;6.72;4.10;;;;;;;21.32;26.36;97507.91;10289730;28;20072;-62
2022/04/15 16:12:09;;;;;;;7.60;5.00;;;;;;;21.14;26.63;97520.16;10289272;28;20076;-61
2022/04/15 16:17:08;;;;;;;8.45;4.68;;;;;;;21.17;26.58;97542.03;10289133;28;20065;-62
2022/04/15 16:22:07;;;;;;;13.20;5.80;;;;;;;21.07;26.94;97555.66;10288528;28;20427;-62
2022/04/15 16:27:06;;;;;;;13.13;6.90;;;;;;;20.83;27.35;97546.25;10288980;28;20069;-61
2022/04/15 16:32:07;;;;;;;13.13;6.13;;;;;;;20.62;28.01;97548.94;10293231;28;20068;-61
2022/04/15 16:37:06;;;;;;;10.63;5.22;;;;;;;20.41;28.40;97553.38;10296289;28;20069;-62
2022/04/15 16:42:05;;;;;;;9.43;4.93;;;;;;;20.12;28.92;97544.09;10295911;28;20038;-62
2022/04/15 16:47:04;;;;;;;8.25;5.05;;;;;;;19.94;29.49;97558.03;10296151;28;20065;-61
2022/04/15 16:52:03;;;;;;;29.92;25.77;;;;;;;19.60;29.93;97536.59;10295480;28;20046;-61
2022/04/15 17:02:20;;;;;;;30.88;18.90;;;;;;;19.15;31.20;97533.97;10288857;28;20069;-61
2022/04/15 17:07:19;;;;;;;88.22;60.05;;;;;;;19.09;32.34;97589.44;10293968;28;20069;-61
2022/04/15 17:12:18;;;;;;;30.52;21.35;;;;;;;18.79;33.03;97587.06;10294245;28;20033;-61
2022/04/15 17:17:17;;;;;;;;;;;;;;;18.40;34.17;97588.38;10294461;28;20044;-62
2022/04/15 17:22:16;;;;;;;64.97;17.00;;;;;;;18.15;34.10;97582.25;10294500;28;19957;-62
2022/04/15 17:27:15;;;;;;;19.30;11.68;;;;;;;17.92;34.65;97602.28;10294227;28;20069;-61
2022/04/15 17:32:14;;;;;;;28.52;14.43;;;;;;;17.64;35.57;97610.16;10293668;28;20037;-61
2022/04/15 17:37:13;;;;;;;;;;;;;;;17.39;36.55;97612.69;10293878;28;20029;-61
2022/04/15 17:42:11;;;;;;;18.38;11.27;;;;;;;17.12;36.97;97624.84;10292919;28;19933;-61
2022/04/15 17:47:10;;;;;;;;;;;;;;;16.88;37.63;97637.75;10293265;28;20114;-61
2022/04/15 17:52:09;;;;;;;19.48;13.00;;;;;;;16.63;38.12;97641.91;10292778;28;19928;-61
2022/04/15 17:57:10;;;;;;;21.15;12.93;;;;;;;16.38;38.62;97654.84;10292352;28;20117;-61
2022/04/15 18:02:09;;;;;;;25.30;11.30;;;;;;;16.17;39.01;97658.84;10292185;28;20077;-61
2022/04/15 18:07:08;;;;;;;;;;;;;;;15.93;39.35;97661.19;10291482;28;20100;-61
2022/04/15 18:12:07;;;;;;;17.27;10.05;;;;;;;15.55;40.19;97648.94;10291980;28;19996;-61
2022/04/15 18:17:07;;;;;;;14.70;8.88;;;;;;;15.28;40.42;97624.28;10291271;28;20091;-61
2022/04/15 18:22:06;;;;;;;17.17;8.98;;;;;;;15.35;40.36;97672.94;10291241;28;20065;-61
2022/04/15 18:27:05;;;;;;;15.48;9.40;;;;;;;15.00;41.23;97657.06;10291375;28;20038;-61
2022/04/15 18:32:07;;;;;;;;;;;;;;;15.11;42.47;97703.91;10291713;28;20174;-61
2022/04/15 18:37:06;;;;;;;26.98;13.60;;;;;;;14.85;43.87;97703.53;10289450;28;19947;-61
2022/04/15 18:42:05;;;;;;;20.77;12.55;;;;;;;14.68;43.41;97702.06;10291332;28;20037;-61
2022/04/15 18:47:05;;;;;;;16.73;9.45;;;;;;;14.56;43.46;97716.22;10291188;28;20040;-61
2022/04/15 18:57:22;;;;;;;24.20;15.90;;;;;;;14.06;45.21;97685.75;10290328;28;20073;-61
2022/04/15 19:02:21;;;;;;;21.60;12.95;;;;;;;14.10;45.07;97711.78;10290608;28;20037;-60
2022/04/15 19:07:20;;;;;;;20.67;12.50;;;;;;;14.00;45.30;97712.78;10290789;28;20033;-61
2022/04/15 19:12:19;;;;;;;19.05;11.77;;;;;;;13.86;46.02;97707.78;10289271;28;20061;-61
2022/04/15 19:17:18;;;;;;;22.50;13.98;;;;;;;13.46;46.88;97653.56;10289656;28;20065;-61
2022/04/15 19:22:17;;;;;;;31.65;18.25;;;;;;;13.28;47.39;97640.78;10289644;28;20080;-62
2022/04/15 19:27:16;;;;;;;;;;;;;;;13.46;48.10;97692.66;10290592;28;20072;-63
2022/04/15 19:32:15;;;;;;;43.00;26.13;;;;;;;13.32;49.50;97697.19;10289691;28;19909;-62
2022/04/15 19:37:14;;;;;;;;;;;;;;;13.12;50.54;97690.50;10290109;28;20065;-62
2022/04/15 19:42:13;;;;;;;41.30;23.17;;;;;;;13.09;50.09;97685.34;10289870;28;19953;-62
2022/04/15 19:47:12;;;;;;;36.35;21.52;;;;;;;12.98;50.58;97686.31;10290241;28;20033;-62
2022/04/15 19:52:11;;;;;;;24.90;14.02;;;;;;;12.83;51.55;97675.19;10289547;28;20084;-62
2022/04/15 20:02:28;;;;;;;22.17;13.68;;;;;;;12.59;52.20;97665.94;10289697;28;20491;-62
2022/04/15 20:07:26;;;;;;;33.55;17.77;;;;;;;12.18;53.03;97607.34;10294616;28;20033;-62
2022/04/15 20:12:25;;;;;;;35.28;16.67;;;;;;;12.35;53.66;97658.38;10296041;28;20531;-61
2022/04/15 20:17:26;;;;;;;40.08;29.83;;;;;;;12.20;54.85;97662.78;10297055;28;20022;-61
2022/04/15 20:22:26;;;;;;;45.83;31.25;;;;;;;12.06;54.93;97639.53;10296500;28;20504;-61
2022/04/15 20:27:25;;;;;;;;;;;;;;;11.98;56.04;97650.88;10297845;28;20076;-62
2022/04/15 20:32:25;;;;;;;37.10;24.45;;;;;;;11.35;56.15;97576.81;10296492;28;20336;-61
2022/04/15 20:37:25;;;;;;;35.92;20.88;;;;;;;11.61;55.97;97639.00;10296858;28;20060;-61
2022/04/15 20:42:24;;;;;;;22.42;15.05;;;;;;;11.46;58.25;97646.91;10296467;28;20099;-61
2022/04/15 20:47:23;;;;;;;25.42;16.77;;;;;;;10.30;56.24;97453.69;10296125;28;20607;-61
2022/04/15 20:52:24;;;;;;;24.25;16.70;;;;;;;11.34;57.55;97649.56;10295724;28;20078;-61
2022/04/15 20:57:23;;;;;;;35.20;18.65;;;;;;;11.16;58.55;97658.34;10295772;28;20594;-61
2022/04/15 21:02:23;;;;;;;30.77;16.52;;;;;;;11.13;57.97;97656.63;10295573;28;20076;-61
2022/04/15 21:07:22;;;;;;;21.85;11.70;;;;;;;11.11;57.56;97658.34;10295548;28;20076;-61
2022/04/15 21:12:21;;;;;;;16.40;9.57;;;;;;;11.01;58.33;97662.72;10294964;28;20095;-61
2022/04/15 21:17:22;;;;;;;16.67;9.90;;;;;;;10.86;58.38;97652.38;10294087;28;20088;-61
2022/04/15 21:22:21;;;;;;;14.23;9.27;;;;;;;10.88;58.69;97661.03;10294331;28;20091;-61
2022/04/15 21:27:20;;;;;;;16.00;9.55;;;;;;;10.82;59.31;97655.84;10294610;28;20107;-61
2022/04/15 21:32:21;;;;;;;17.48;10.00;;;;;;;10.79;58.65;97655.84;10293934;28;20069;-61
2022/04/15 21:37:20;;;;;;;15.88;11.23;;;;;;;10.41;59.54;97592.81;10293930;28;20076;-61
2022/04/15 21:42:19;;;;;;;20.85;13.43;;;;;;;10.23;60.22;97586.84;10294220;28;20033;-61
2022/04/15 21:47:18;;;;;;;20.15;14.15;;;;;;;10.53;59.90;97651.59;10293968;28;20072;-61
2022/04/15 21:52:33;;;;;;;23.83;16.13;;;;;;;10.04;60.64;97586.00;10293425;28;20078;-61
2022/04/15 21:57:36;;;;;;;26.17;16.83;;;;;;;10.12;61.77;97626.63;10293207;28;20538;-61
2022/04/15 22:02:35;;;;;;;24.75;17.65;;;;;;;9.89;62.29;97607.63;10292441;28;20073;-61
2022/04/15 22:07:34;;;;;;;23.10;16.50;;;;;;;9.90;63.29;97645.63;10292434;28;20066;-61
2022/04/15 22:12:32;;;;;;;23.95;16.52;;;;;;;9.43;63.75;97564.44;10292640;28;20040;-61
2022/04/15 22:17:31;;;;;;;19.98;15.40;;;;;;;9.49;63.74;97572.22;10292542;28;20034;-63
2022/04/15 22:22:30;;;;;;;22.77;15.93;;;;;;;9.67;63.60;97612.78;10292244;28;20036;-61
2022/04/15 22:27:29;;;;;;;22.73;15.63;;;;;;;9.72;64.13;97626.66;10291498;28;20393;-61
2022/04/15 22:32:28;;;;;;;24.77;15.25;;;;;;;9.68;64.09;97613.69;10292219;28;20105;-61
2022/04/15 22:37:28;;;;;;;20.88;15.05;;;;;;;9.38;63.84;97573.09;10291421;28;20033;-60
2022/04/15 22:42:27;;;;;;;19.65;14.88;;;;;;;9.49;64.54;97608.50;10290954;28;20065;-61
2022/04/15 22:47:46;;;;;;;22.83;15.27;;;;;;;9.38;65.74;97601.56;10291406;28;20081;-61
2022/04/15 22:52:44;;;;;;;23.70;16.17;;;;;;;9.24;66.11;97592.00;10290892;28;20087;-61
2022/04/15 22:57:44;;;;;;;32.10;19.88;;;;;;;9.21;66.99;97596.31;10290587;28;20026;-61
2022/04/15 23:02:44;;;;;;;33.92;20.27;;;;;;;9.09;67.03;97592.84;10290193;28;20373;-60
2022/04/15 23:07:45;;;;;;;;;;;;;;;9.03;66.66;97587.66;10291436;28;20053;-60
2022/04/15 23:12:44;;;;;;;25.77;17.40;;;;;;;8.65;66.79;97562.53;10290038;28;19967;-60
2022/04/15 23:17:44;;;;;;;22.58;14.68;;;;;;;8.22;68.18;97533.91;10290055;28;20034;-61
2022/04/15 23:22:43;;;;;;;23.98;16.17;;;;;;;8.20;67.67;97533.06;10289690;28;20066;-60
2022/04/15 23:27:42;;;;;;;25.65;16.17;;;;;;;7.61;67.51;97446.59;10290038;28;20065;-60
2022/04/15 23:32:41;;;;;;;26.75;13.73;;;;;;;8.35;68.07;97585.69;10290106;28;20458;-60
2022/04/15 23:37:40;;;;;;;23.00;14.93;;;;;;;8.17;68.73;97570.94;10290126;28;20028;-60